Time;durP1;ratioP1;P1;durP2;ratioP2;P2;SDS_P1;SDS_P2;PMS_P1;PMS_P2;Temp;Humidity;BMP_temperature;BMP_pressure;BME280_temperature;BME280_humidity;BME280_pressure;Samples;Min_cycle;Max_cycle;Signal;HPM_P1;HPM_P2
2022/10/10 00:02:06;;;;;;;5.88;3.45;;;;;;;8.46;71.01;101402.44;5017904;28;20018;-75
2022/10/10 00:04:31;;;;;;;5.93;3.58;;;;;;;8.43;70.86;101403.31;5013432;28;20029;-74
2022/10/10 00:06:56;;;;;;;6.07;3.70;;;;;;;8.42;71.68;101400.72;5012466;28;20033;-75
2022/10/10 00:09:21;;;;;;;5.72;3.50;;;;;;;8.43;71.11;101407.63;5011281;28;20048;-75
2022/10/10 00:11:47;;;;;;;6.38;3.70;;;;;;;8.40;71.12;101399.88;5011945;28;20049;-75
2022/10/10 00:14:12;;;;;;;5.47;3.63;;;;;;;8.36;71.37;101396.44;5012276;28;20026;-75
2022/10/10 00:16:37;;;;;;;5.43;3.60;;;;;;;8.33;71.79;101397.34;5011977;28;20030;-74
2022/10/10 00:19:03;;;;;;;6.85;3.90;;;;;;;8.32;71.73;101395.63;4994590;28;20021;-75
2022/10/10 00:21:28;;;;;;;10.68;3.83;;;;;;;8.31;71.64;101401.69;5012163;28;20508;-74
2022/10/10 00:23:53;;;;;;;5.40;3.38;;;;;;;8.30;71.86;101399.97;5010519;28;20076;-75
2022/10/10 00:26:18;;;;;;;5.93;3.70;;;;;;;8.28;71.71;101388.75;5012116;28;20033;-74
2022/10/10 00:28:44;;;;;;;6.32;3.67;;;;;;;8.25;71.56;101393.94;5011725;28;20088;-74
2022/10/10 00:31:09;;;;;;;6.72;3.83;;;;;;;8.24;71.46;101392.22;4994618;28;20038;-74
2022/10/10 00:33:35;;;;;;;7.63;3.92;;;;;;;8.19;71.44;101391.41;5012377;28;20445;-74
2022/10/10 00:36:01;;;;;;;4.85;3.50;;;;;;;8.14;71.68;101385.38;5008620;28;20030;-74
2022/10/10 00:38:26;;;;;;;4.82;3.38;;;;;;;8.10;71.87;101384.56;5011906;28;20366;-74
2022/10/10 00:40:54;;;;;;;4.82;3.42;;;;;;;8.07;72.07;101383.69;5010990;28;20032;-74
2022/10/10 00:43:22;;;;;;;6.00;3.65;;;;;;;8.04;71.87;101385.44;5012802;28;20550;-75
2022/10/10 00:45:47;;;;;;;5.45;3.78;;;;;;;8.02;71.89;101382.00;5010438;28;20060;-74
2022/10/10 00:48:26;;;;;;;5.13;3.45;;;;;;;7.99;71.79;101381.16;5011779;28;20384;-75
2022/10/10 00:51:10;;;;;;;6.03;3.30;;;;;;;7.94;71.34;101381.19;5006759;28;20064;-75
2022/10/10 00:53:43;;;;;;;5.63;3.58;;;;;;;7.88;71.65;101373.44;5012209;28;20030;-75
2022/10/10 00:56:11;;;;;;;4.80;3.47;;;;;;;7.84;72.33;101377.78;5012355;28;20082;-74
2022/10/10 00:58:39;;;;;;;8.77;3.80;;;;;;;7.81;72.05;101379.53;5012604;28;20038;-74
2022/10/10 01:01:05;;;;;;;6.22;3.67;;;;;;;7.78;72.40;101375.22;5012536;28;20026;-74
2022/10/10 01:03:31;;;;;;;5.40;3.70;;;;;;;7.74;72.59;101371.78;5004283;28;20085;-74
2022/10/10 01:05:56;;;;;;;6.18;3.90;;;;;;;7.72;72.15;101368.34;5006984;28;20034;-75
2022/10/10 01:08:22;;;;;;;8.07;3.83;;;;;;;7.69;72.69;101372.69;5011275;28;20091;-75
2022/10/10 01:11:08;;;;;;;5.70;3.58;;;;;;;7.67;72.36;101364.94;5012334;28;20065;-75
2022/10/10 01:13:50;;;;;;;6.43;3.90;;;;;;;7.66;72.89;101363.22;5012806;28;20032;-74
2022/10/10 01:16:19;;;;;;;5.70;3.67;;;;;;;7.65;73.05;101358.91;5011666;28;20036;-75
2022/10/10 01:18:56;;;;;;;5.35;3.72;;;;;;;7.64;72.84;101362.38;5012522;28;20030;-74
2022/10/10 01:21:44;;;;;;;6.35;4.20;;;;;;;7.63;72.74;101358.06;5010320;28;20061;-74
2022/10/10 01:24:32;;;;;;;5.20;3.72;;;;;;;7.62;72.65;101356.34;5012269;28;20088;-74
2022/10/10 01:27:32;;;;;;;5.38;3.67;;;;;;;7.62;72.60;101352.88;5011129;28;20388;-74
2022/10/10 01:30:20;;;;;;;7.80;3.90;;;;;;;7.61;72.52;101354.59;5009403;28;20038;-75
2022/10/10 01:33:15;;;;;;;5.45;3.30;;;;;;;7.61;72.88;101357.19;5009626;28;20034;-75
2022/10/10 01:35:52;;;;;;;6.90;3.95;;;;;;;7.62;73.15;101361.50;5010338;28;20029;-75
2022/10/10 01:38:34;;;;;;;7.10;3.92;;;;;;;7.60;73.60;101348.56;5001425;28;20032;-74
2022/10/10 01:41:12;;;;;;;7.18;3.90;;;;;;;7.61;73.36;101352.03;5010211;28;20470;-75
2022/10/10 01:43:37;;;;;;;7.28;3.67;;;;;;;7.60;73.47;101348.56;5010618;28;20037;-74
2022/10/10 01:46:15;;;;;;;7.18;3.97;;;;;;;7.60;73.62;101345.13;5011213;28;20046;-74
2022/10/10 01:48:43;;;;;;;7.78;3.80;;;;;;;7.56;73.16;101340.81;4998945;28;20041;-74
2022/10/10 01:51:43;;;;;;;6.05;4.20;;;;;;;7.55;73.09;101336.50;5009436;28;20103;-74
2022/10/10 01:54:39;;;;;;;5.78;3.95;;;;;;;7.54;73.01;101337.38;5002508;28;20470;-74
2022/10/10 01:57:33;;;;;;;7.35;3.90;;;;;;;7.53;73.36;101336.53;5011426;28;20022;-74
2022/10/10 02:00:01;;;;;;;5.53;3.83;;;;;;;7.52;73.85;101333.94;5014512;28;20034;-75
2022/10/10 02:02:45;;;;;;;6.00;3.92;;;;;;;7.50;73.10;101328.78;5013375;28;20049;-75
2022/10/10 02:05:41;;;;;;;5.82;3.78;;;;;;;7.50;73.31;101327.91;5015412;28;20103;-75
2022/10/10 02:08:16;;;;;;;5.70;3.88;;;;;;;7.48;74.37;101327.91;5008256;28;20021;-75
2022/10/10 02:10:48;;;;;;;6.63;3.90;;;;;;;7.46;74.25;101323.63;5013398;28;20026;-74
2022/10/10 02:13:15;;;;;;;6.07;4.07;;;;;;;7.43;74.13;101322.75;5015623;28;20109;-75
2022/10/10 02:15:46;;;;;;;5.22;3.53;;;;;;;7.42;74.30;101313.28;5014890;28;20026;-74
2022/10/10 02:18:13;;;;;;;9.60;4.05;;;;;;;7.44;74.24;101316.72;5013678;28;20032;-74
2022/10/10 02:20:42;;;;;;;6.15;4.35;;;;;;;7.44;74.48;101314.13;5014111;28;20042;-74
2022/10/10 02:23:12;;;;;;;6.45;4.03;;;;;;;7.43;74.19;101317.59;5014849;28;20026;-75
2022/10/10 02:25:40;;;;;;;6.55;4.40;;;;;;;7.44;74.66;101311.53;5015378;28;20063;-74
2022/10/10 02:28:16;;;;;;;6.10;4.05;;;;;;;7.46;74.99;101308.09;5012593;28;20022;-75
2022/10/10 02:30:45;;;;;;;7.70;3.85;;;;;;;7.46;75.35;101300.31;5013255;28;20025;-74
2022/10/10 02:33:16;;;;;;;7.25;4.25;;;;;;;7.47;75.74;101304.63;5012884;28;20025;-74
2022/10/10 02:35:44;;;;;;;6.47;4.18;;;;;;;7.47;75.44;101309.81;5013601;28;20032;-75
2022/10/10 02:38:13;;;;;;;7.30;4.22;;;;;;;7.48;75.19;101308.94;5011799;28;20029;-75
2022/10/10 02:40:40;;;;;;;7.30;4.43;;;;;;;7.48;74.91;101296.00;5014980;28;20026;-75
2022/10/10 02:43:06;;;;;;;8.60;4.65;;;;;;;7.48;75.02;101301.19;5014561;28;20053;-75
2022/10/10 02:45:33;;;;;;;6.85;4.30;;;;;;;7.48;75.04;101303.75;5011445;28;20049;-74
2022/10/10 02:48:02;;;;;;;7.07;4.60;;;;;;;7.48;75.23;101298.59;4996492;28;20026;-75
2022/10/10 02:50:29;;;;;;;5.88;4.20;;;;;;;7.48;75.09;101296.84;5015510;28;20080;-75
2022/10/10 02:52:55;;;;;;;6.68;4.38;;;;;;;7.47;75.21;101289.09;5014443;28;20030;-74
2022/10/10 02:55:20;;;;;;;7.53;4.72;;;;;;;7.48;75.40;101288.22;5014420;28;20034;-74
2022/10/10 02:57:45;;;;;;;6.40;4.25;;;;;;;7.48;75.55;101285.66;5015164;28;20026;-75
2022/10/10 03:00:11;;;;;;;7.00;4.50;;;;;;;7.48;75.96;101280.47;5015665;28;20461;-74
2022/10/10 03:02:37;;;;;;;7.82;4.50;;;;;;;7.48;76.12;101277.88;5014312;28;20025;-74
2022/10/10 03:05:02;;;;;;;7.95;4.82;;;;;;;7.47;76.14;101273.56;5014748;28;20399;-74
2022/10/10 03:07:27;;;;;;;6.60;4.47;;;;;;;7.47;75.72;101277.00;5014370;28;20034;-74
2022/10/10 03:09:53;;;;;;;6.78;4.55;;;;;;;7.47;75.32;101270.97;4996330;28;20088;-74
2022/10/10 03:12:18;;;;;;;7.15;4.47;;;;;;;7.46;75.97;101267.50;5014278;28;20228;-74
2022/10/10 03:14:43;;;;;;;7.03;4.60;;;;;;;7.46;75.92;101266.66;5013462;28;20042;-74
2022/10/10 03:17:09;;;;;;;6.65;4.40;;;;;;;7.44;75.97;101270.13;4995050;28;20026;-75
2022/10/10 03:19:34;;;;;;;10.05;4.68;;;;;;;7.46;76.38;101271.84;5013077;28;20441;-74
2022/10/10 03:21:59;;;;;;;7.82;4.57;;;;;;;7.44;76.02;101274.41;5012380;28;20044;-75
2022/10/10 03:24:25;;;;;;;7.30;4.57;;;;;;;7.44;76.53;101269.25;5013709;28;20026;-75
2022/10/10 03:26:50;;;;;;;5.78;4.43;;;;;;;7.44;76.41;101271.84;5012863;28;20029;-75
2022/10/10 03:29:16;;;;;;;7.07;4.80;;;;;;;7.44;76.18;101264.94;5013931;28;20108;-74
2022/10/10 03:31:41;;;;;;;7.78;4.68;;;;;;;7.46;76.00;101266.66;5010491;28;20022;-75
2022/10/10 03:34:07;;;;;;;6.45;4.18;;;;;;;7.44;76.40;101270.13;5013229;28;20026;-74
2022/10/10 03:36:32;;;;;;;6.60;4.10;;;;;;;7.43;76.41;101268.41;5013369;28;20152;-74
2022/10/10 03:38:57;;;;;;;6.28;4.40;;;;;;;7.43;76.41;101267.53;5013206;28;20045;-75
2022/10/10 03:41:23;;;;;;;6.15;3.97;;;;;;;7.41;76.74;101262.38;4994652;28;20115;-74
2022/10/10 03:43:48;;;;;;;7.60;4.60;;;;;;;7.41;76.68;101264.13;5014621;28;20481;-74
2022/10/10 03:46:13;;;;;;;7.97;4.28;;;;;;;7.42;76.88;101268.44;5008704;28;20030;-74
2022/10/10 03:48:38;;;;;;;7.60;4.45;;;;;;;7.41;76.76;101267.53;5010170;28;20473;-74
2022/10/10 03:51:05;;;;;;;8.13;4.13;;;;;;;7.40;76.61;101257.22;5008297;28;20029;-74
2022/10/10 03:53:30;;;;;;;5.75;4.15;;;;;;;7.40;77.12;101270.16;5012049;28;20366;-74
2022/10/10 03:55:56;;;;;;;7.07;4.10;;;;;;;7.38;76.93;101270.16;5012455;28;20024;-74
2022/10/10 03:58:21;;;;;;;7.80;4.40;;;;;;;7.36;77.28;101266.69;4995249;28;20169;-74
2022/10/10 04:00:58;;;;;;;7.57;4.35;;;;;;;7.36;77.09;101271.88;5011904;28;20547;-74
2022/10/10 04:03:24;;;;;;;6.63;4.00;;;;;;;7.35;76.84;101264.97;5011232;28;20072;-75
2022/10/10 04:05:49;;;;;;;8.10;4.32;;;;;;;7.32;77.46;101270.19;5012791;28;20071;-75
2022/10/10 04:08:15;;;;;;;6.57;4.45;;;;;;;7.29;77.47;101265.03;5011860;28;20038;-74
2022/10/10 04:10:40;;;;;;;6.53;4.32;;;;;;;7.28;77.30;101268.50;5012550;28;20022;-75
2022/10/10 04:13:05;;;;;;;6.95;4.03;;;;;;;7.25;77.55;101265.91;5011655;28;20435;-74
2022/10/10 04:15:31;;;;;;;6.95;4.25;;;;;;;7.22;77.32;101271.09;5012935;28;20021;-74
2022/10/10 04:17:57;;;;;;;7.03;4.20;;;;;;;7.20;77.31;101265.94;5011967;28;20461;-74
2022/10/10 04:20:23;;;;;;;6.07;4.07;;;;;;;7.20;77.36;101265.06;5011407;28;20033;-74
2022/10/10 04:22:48;;;;;;;6.93;4.07;;;;;;;7.21;77.92;101271.97;5011158;28;20030;-74
2022/10/10 04:25:13;;;;;;;10.32;4.47;;;;;;;7.20;77.96;101265.06;5011995;28;20497;-74
2022/10/10 04:27:38;;;;;;;6.25;3.90;;;;;;;7.20;78.16;101258.19;5012297;28;20041;-74
2022/10/10 04:30:05;;;;;;;10.98;4.30;;;;;;;7.18;78.14;101254.72;5012904;28;20030;-74
2022/10/10 04:32:30;;;;;;;5.15;4.10;;;;;;;7.20;78.05;101254.72;5004677;28;20444;-74
2022/10/10 04:34:55;;;;;;;8.38;4.28;;;;;;;7.18;77.41;101264.22;5013428;28;20026;-74
2022/10/10 04:37:21;;;;;;;6.47;3.97;;;;;;;7.16;78.01;101260.78;5012177;28;20025;-74
2022/10/10 04:39:46;;;;;;;6.53;3.85;;;;;;;7.13;78.11;101265.13;5012874;28;20029;-75
2022/10/10 04:42:11;;;;;;;6.57;3.63;;;;;;;7.12;78.58;101258.22;5012687;28;20036;-74
2022/10/10 04:44:36;;;;;;;7.28;4.07;;;;;;;7.12;78.30;101263.38;5013233;28;20485;-75
2022/10/10 04:47:02;;;;;;;7.30;3.97;;;;;;;7.13;78.62;101262.53;5012700;28;20038;-75
2022/10/10 04:49:28;;;;;;;6.45;3.78;;;;;;;7.12;78.77;101260.81;5012606;28;20394;-74
2022/10/10 04:51:54;;;;;;;6.05;3.83;;;;;;;7.12;78.70;101263.38;5012302;28;20479;-74
2022/10/10 04:54:19;;;;;;;8.38;4.03;;;;;;;7.10;79.12;101254.78;5012922;28;20095;-74
2022/10/10 04:56:44;;;;;;;6.25;3.92;;;;;;;7.10;78.81;101265.13;5013558;28;20018;-75
2022/10/10 04:59:10;;;;;;;5.93;3.88;;;;;;;7.09;78.78;101267.69;5012858;28;20033;-74
2022/10/10 05:01:35;;;;;;;6.53;4.38;;;;;;;7.07;79.10;101265.13;5010977;28;20037;-74
2022/10/10 05:04:00;;;;;;;7.15;3.70;;;;;;;7.05;78.90;101266.00;5012106;28;20081;-74
2022/10/10 05:06:26;;;;;;;6.85;4.18;;;;;;;7.03;79.48;101263.41;5006971;28;20473;-74
2022/10/10 05:08:51;;;;;;;5.78;3.40;;;;;;;7.02;79.85;101259.09;4994325;28;20042;-74
2022/10/10 05:11:17;;;;;;;6.88;3.75;;;;;;;7.00;79.70;101247.94;5007474;28;20030;-74
2022/10/10 05:13:42;;;;;;;6.70;3.92;;;;;;;6.99;79.61;101254.81;4995735;28;20026;-74
2022/10/10 05:16:07;;;;;;;5.30;3.60;;;;;;;6.98;80.08;101247.06;4997827;28;20025;-74
2022/10/10 05:18:36;;;;;;;5.32;3.65;;;;;;;6.98;79.66;101260.00;5011046;28;20037;-75
2022/10/10 05:21:01;;;;;;;7.65;4.10;;;;;;;6.98;79.78;101249.66;5011671;28;20357;-74
2022/10/10 05:23:27;;;;;;;6.50;3.55;;;;;;;6.98;79.65;101254.84;5012228;28;20453;-74
2022/10/10 05:25:52;;;;;;;6.13;4.03;;;;;;;6.97;79.74;101258.28;5011230;28;20037;-74
2022/10/10 05:28:17;;;;;;;5.28;3.80;;;;;;;6.96;80.02;101257.41;5010332;28;20025;-74
2022/10/10 05:30:42;;;;;;;6.78;3.50;;;;;;;6.96;79.98;101254.81;5011168;28;20022;-74
2022/10/10 05:33:08;;;;;;;7.65;3.70;;;;;;;6.95;80.23;101260.00;5010556;28;20040;-74
2022/10/10 05:35:33;;;;;;;6.70;3.53;;;;;;;6.96;80.25;101256.56;5013084;28;20033;-74
2022/10/10 05:37:58;;;;;;;5.35;3.65;;;;;;;6.94;80.00;101253.97;5007647;28;20477;-74
2022/10/10 05:40:24;;;;;;;7.20;3.80;;;;;;;6.95;80.66;101260.00;5006307;28;20095;-74
2022/10/10 05:42:49;;;;;;;6.55;3.70;;;;;;;6.93;80.32;101257.41;5009609;28;20061;-74
2022/10/10 05:45:15;;;;;;;8.32;3.90;;;;;;;6.94;80.80;101263.47;5011530;28;20030;-74
2022/10/10 05:47:40;;;;;;;6.38;3.58;;;;;;;6.94;80.60;101255.72;5009486;28;20489;-74
2022/10/10 05:50:07;;;;;;;6.80;3.50;;;;;;;6.95;80.60;101254.84;5009949;28;20480;-75
2022/10/10 05:52:34;;;;;;;6.53;3.88;;;;;;;6.95;80.79;101255.69;4992868;28;20477;-75
2022/10/10 05:54:59;;;;;;;7.55;4.05;;;;;;;6.96;80.39;101246.22;5009424;28;20036;-75
2022/10/10 05:57:24;;;;;;;6.22;3.70;;;;;;;6.98;80.93;101252.25;5005648;28;20030;-74
2022/10/10 05:59:49;;;;;;;5.50;3.85;;;;;;;6.98;80.72;101258.25;5011325;28;20030;-75
2022/10/10 06:02:15;;;;;;;5.95;3.60;;;;;;;6.99;80.59;101256.56;5008290;28;20080;-74
2022/10/10 06:04:40;;;;;;;5.63;3.50;;;;;;;6.99;80.76;101252.22;5009220;28;20034;-74
2022/10/10 06:07:05;;;;;;;6.75;3.88;;;;;;;7.01;81.08;101252.22;5007463;28;20488;-74
2022/10/10 06:09:31;;;;;;;8.07;3.80;;;;;;;7.02;81.11;101256.53;5007704;28;20030;-74
2022/10/10 06:11:56;;;;;;;6.97;3.90;;;;;;;7.03;81.23;101253.06;4995876;28;20033;-74
2022/10/10 06:14:21;;;;;;;7.32;3.97;;;;;;;7.05;81.14;101250.50;5014507;28;20055;-74
2022/10/10 06:16:46;;;;;;;9.05;4.00;;;;;;;7.07;81.00;101259.94;5009072;28;20053;-75
2022/10/10 06:19:12;;;;;;;5.85;3.83;;;;;;;7.08;81.58;101261.69;5009062;28;20060;-75
2022/10/10 06:21:37;;;;;;;6.30;3.63;;;;;;;7.10;82.01;101266.84;5011504;28;20584;-75
2022/10/10 06:24:02;;;;;;;7.20;3.78;;;;;;;7.11;81.46;101271.13;5002408;28;20389;-74
2022/10/10 06:26:28;;;;;;;7.63;4.20;;;;;;;7.13;81.73;101269.41;5002828;28;20858;-75
2022/10/10 06:28:53;;;;;;;7.00;3.85;;;;;;;7.16;81.74;101273.72;5001088;28;20033;-75
2022/10/10 06:31:18;;;;;;;5.63;3.90;;;;;;;7.18;81.61;101267.66;5003923;28;20041;-74
2022/10/10 06:33:45;;;;;;;6.03;3.45;;;;;;;7.21;81.68;101275.44;5000395;28;20083;-74
2022/10/10 06:36:11;;;;;;;5.80;3.60;;;;;;;7.23;81.62;101273.69;4997907;28;20136;-74
2022/10/10 06:38:38;;;;;;;9.00;3.70;;;;;;;7.27;81.94;101277.13;4997144;28;20050;-75
2022/10/10 06:41:05;;;;;;;6.05;3.83;;;;;;;7.28;81.69;101278.84;5002390;28;20488;-75
2022/10/10 06:43:31;;;;;;;9.35;4.07;;;;;;;7.29;82.06;101271.06;5003521;28;20110;-75
2022/10/10 06:45:57;;;;;;;6.15;3.92;;;;;;;7.31;82.11;101272.78;5006699;28;20081;-75
2022/10/10 06:48:23;;;;;;;5.75;3.65;;;;;;;7.32;82.53;101277.97;5005760;28;20042;-75
2022/10/10 06:51:14;;;;;;;7.13;3.65;;;;;;;7.35;82.89;101282.25;5003981;28;20040;-75
2022/10/10 06:53:40;;;;;;;8.18;4.15;;;;;;;7.39;82.33;101282.22;5009002;28;20448;-75
2022/10/10 06:56:05;;;;;;;6.18;3.95;;;;;;;7.41;82.26;101285.66;5004078;28;20029;-75
2022/10/10 06:58:32;;;;;;;5.88;3.75;;;;;;;7.46;82.51;101282.19;5006756;28;20477;-75
2022/10/10 07:01:00;;;;;;;6.43;3.78;;;;;;;7.50;82.64;101283.91;5008973;28;20047;-75
2022/10/10 07:03:27;;;;;;;6.32;3.58;;;;;;;7.55;82.99;101279.53;5007803;28;20025;-75
2022/10/10 07:05:54;;;;;;;6.97;3.85;;;;;;;7.60;83.20;101277.78;5004993;28;20032;-75
2022/10/10 07:08:20;;;;;;;10.60;4.22;;;;;;;7.67;83.33;101291.56;5007643;28;20134;-74
2022/10/10 07:10:46;;;;;;;10.30;4.63;;;;;;;7.73;83.09;101289.78;5007136;28;20030;-74
2022/10/10 07:13:12;;;;;;;9.20;4.53;;;;;;;7.81;83.57;101288.88;5006891;28;20524;-75
2022/10/10 07:15:37;;;;;;;8.52;4.57;;;;;;;7.86;83.80;101285.38;5007356;28;20025;-75
2022/10/10 07:18:02;;;;;;;8.25;4.70;;;;;;;7.96;84.04;101283.59;5008269;28;20576;-75
2022/10/10 07:20:27;;;;;;;7.40;4.60;;;;;;;8.03;83.65;101279.22;5007372;28;20040;-75
2022/10/10 07:22:53;;;;;;;8.23;4.10;;;;;;;8.10;83.32;101280.03;5007919;28;20026;-75
2022/10/10 07:25:18;;;;;;;6.88;4.50;;;;;;;8.16;83.54;101286.00;5007543;28;20026;-75
2022/10/10 07:27:43;;;;;;;10.02;4.43;;;;;;;8.23;83.82;101292.00;5008017;28;20494;-76
2022/10/10 07:30:09;;;;;;;6.10;4.65;;;;;;;8.30;83.51;101288.50;5008825;28;20028;-75
2022/10/10 07:32:34;;;;;;;7.20;4.03;;;;;;;8.38;83.63;101290.13;4989958;28;20117;-75
2022/10/10 07:35:00;;;;;;;5.53;3.83;;;;;;;8.46;83.67;101296.13;5009069;28;20481;-75
2022/10/10 07:37:25;;;;;;;8.95;4.63;;;;;;;8.51;83.74;101294.38;5006937;28;20153;-75
2022/10/10 07:39:54;;;;;;;8.40;4.15;;;;;;;8.62;83.97;101305.50;5007591;28;20026;-75
2022/10/10 07:42:19;;;;;;;9.77;5.10;;;;;;;8.69;83.90;101308.88;5008716;28;20069;-74
2022/10/10 07:44:44;;;;;;;6.53;4.30;;;;;;;8.77;83.39;101304.50;5008961;28;20057;-74
2022/10/10 07:47:10;;;;;;;8.32;4.72;;;;;;;8.86;84.08;101300.06;5007166;28;20520;-75
2022/10/10 07:49:35;;;;;;;8.43;4.05;;;;;;;8.95;84.20;101305.16;5007764;28;20430;-76
2022/10/10 07:52:00;;;;;;;7.60;4.22;;;;;;;9.05;83.73;101305.91;5008357;28;20049;-75
2022/10/10 07:54:26;;;;;;;10.88;4.35;;;;;;;9.13;83.13;101318.81;5008356;28;20064;-76
2022/10/10 07:56:51;;;;;;;8.13;4.10;;;;;;;9.21;83.54;101316.97;5008592;28;20079;-76
2022/10/10 07:59:16;;;;;;;7.35;4.40;;;;;;;9.31;83.26;101320.28;5007674;28;20032;-75
2022/10/10 08:01:41;;;;;;;8.35;4.72;;;;;;;9.40;83.89;101326.22;5008013;28;20044;-75
2022/10/10 08:04:07;;;;;;;6.88;4.22;;;;;;;9.50;83.58;101328.69;5005539;28;20072;-75
2022/10/10 08:06:32;;;;;;;7.07;3.97;;;;;;;9.57;83.65;101326.00;5003878;28;20058;-75
2022/10/10 08:08:57;;;;;;;6.90;4.05;;;;;;;9.66;83.78;101326.75;5007597;28;20112;-75
2022/10/10 08:11:22;;;;;;;6.15;3.88;;;;;;;9.74;83.01;101322.28;5004403;28;20100;-75
2022/10/10 08:13:49;;;;;;;7.28;3.72;;;;;;;9.83;83.28;101323.91;5004201;28;20025;-74
2022/10/10 08:16:14;;;;;;;7.82;3.83;;;;;;;9.92;83.21;101322.91;5003895;28;20202;-76
2022/10/10 08:18:40;;;;;;;8.45;4.00;;;;;;;9.98;82.64;101331.50;5005871;28;20113;-75
2022/10/10 08:21:07;;;;;;;6.28;3.70;;;;;;;10.05;82.55;101332.25;5007753;28;20037;-75
2022/10/10 08:23:33;;;;;;;6.50;3.60;;;;;;;10.14;82.81;101333.84;5001018;28;20037;-76
2022/10/10 08:26:01;;;;;;;10.23;4.32;;;;;;;10.22;82.97;101336.31;5000303;28;20034;-75
2022/10/10 08:28:27;;;;;;;8.57;3.95;;;;;;;10.29;82.70;101322.31;5001311;28;20034;-76
2022/10/10 08:30:53;;;;;;;8.48;3.78;;;;;;;10.35;83.00;101322.22;4999261;28;20042;-76
2022/10/10 08:33:18;;;;;;;8.80;3.53;;;;;;;10.42;82.63;101328.22;5002284;28;20092;-76
2022/10/10 08:35:43;;;;;;;8.50;4.03;;;;;;;10.50;83.08;101325.47;5001043;28;20430;-75
2022/10/10 08:38:09;;;;;;;8.85;4.30;;;;;;;10.60;83.50;101319.22;5000811;28;20033;-75
2022/10/10 08:40:46;;;;;;;7.85;4.10;;;;;;;10.71;83.10;101319.88;5002037;28;20151;-75
2022/10/10 08:43:28;;;;;;;6.95;4.07;;;;;;;10.82;82.49;101321.41;5005113;28;20835;-75
2022/10/10 08:45:56;;;;;;;6.15;3.65;;;;;;;10.90;82.23;101325.59;5001162;28;20618;-74
2022/10/10 08:48:27;;;;;;;7.25;3.67;;;;;;;10.97;80.82;101328.94;5005671;28;20068;-74
2022/10/10 08:50:58;;;;;;;6.75;3.78;;;;;;;11.04;81.63;101321.84;5004369;28;20412;-75
2022/10/10 08:53:31;;;;;;;7.30;3.78;;;;;;;11.13;81.39;101323.41;5002216;28;20500;-75
2022/10/10 08:55:56;;;;;;;7.00;3.53;;;;;;;11.22;81.03;101329.28;5002536;28;20101;-75
2022/10/10 08:58:28;;;;;;;8.30;3.63;;;;;;;11.33;81.48;101326.47;5000817;28;20038;-75
2022/10/10 09:01:00;;;;;;;6.32;3.35;;;;;;;11.45;80.96;101329.69;4999927;28;20053;-75
2022/10/10 09:03:33;;;;;;;8.45;3.67;;;;;;;11.57;80.55;101329.44;4999696;28;20037;-75
2022/10/10 09:06:18;;;;;;;9.05;3.70;;;;;;;11.68;80.37;101330.06;5000999;28;20045;-76
2022/10/10 09:09:05;;;;;;;7.75;3.40;;;;;;;11.80;79.20;101328.06;4986463;28;20037;-75
2022/10/10 09:11:52;;;;;;;7.22;3.80;;;;;;;11.93;78.91;101328.63;5001633;28;20588;-75
2022/10/10 09:14:38;;;;;;;5.85;3.20;;;;;;;12.05;78.53;101319.69;5001123;28;20033;-74
2022/10/10 09:17:13;;;;;;;9.80;3.70;;;;;;;12.17;78.85;101327.22;5000934;28;20079;-75
2022/10/10 09:19:45;;;;;;;12.75;3.67;;;;;;;12.28;78.13;101325.22;4984724;28;20041;-74
2022/10/10 09:22:16;;;;;;;6.13;3.42;;;;;;;12.39;76.91;101335.34;5001155;28;20038;-75
2022/10/10 09:25:07;;;;;;;7.25;3.90;;;;;;;12.50;77.36;101335.09;5001860;28;20064;-75
2022/10/10 09:27:38;;;;;;;8.27;3.58;;;;;;;12.59;76.86;101345.31;4978033;28;20175;-75
2022/10/10 09:30:18;;;;;;;9.02;3.65;;;;;;;12.67;75.96;101342.50;5002482;28;20025;-75
2022/10/10 09:33:00;;;;;;;6.55;3.40;;;;;;;12.75;75.65;101350.13;5003508;28;20072;-74
2022/10/10 09:35:29;;;;;;;6.50;3.42;;;;;;;12.81;75.75;101342.09;5002576;28;20052;-75
2022/10/10 09:38:09;;;;;;;8.77;3.50;;;;;;;12.86;75.39;101342.84;5001492;28;20037;-75
2022/10/10 09:40:57;;;;;;;7.60;3.55;;;;;;;12.91;75.31;101334.88;5002590;28;20052;-75
2022/10/10 09:43:30;;;;;;;9.38;3.88;;;;;;;12.99;75.65;101347.72;5001741;28;20030;-74
2022/10/10 09:45:55;;;;;;;9.52;3.58;;;;;;;13.04;74.62;101354.56;5001180;28;20501;-76
2022/10/10 09:48:26;;;;;;;9.48;3.92;;;;;;;13.13;74.31;101365.63;5002089;28;20168;-76
2022/10/10 09:50:51;;;;;;;7.25;3.60;;;;;;;13.27;74.87;101362.63;5002390;28;20037;-75
2022/10/10 09:53:16;;;;;;;7.90;3.88;;;;;;;13.38;74.58;101365.78;5001208;28;20040;-75
2022/10/10 09:55:44;;;;;;;6.63;3.97;;;;;;;13.45;74.04;101367.34;5003351;28;20120;-76
2022/10/10 09:58:24;;;;;;;11.07;3.70;;;;;;;13.53;73.40;101368.88;5005152;28;20490;-75
2022/10/10 10:00:49;;;;;;;11.10;3.72;;;;;;;13.59;73.22;101368.69;5005172;28;20108;-75
2022/10/10 10:03:17;;;;;;;7.07;3.20;;;;;;;13.65;72.97;101374.59;5007397;28;20149;-76
2022/10/10 10:05:51;;;;;;;6.60;3.38;;;;;;;13.74;73.72;101370.84;5003479;28;20073;-75
2022/10/10 10:08:27;;;;;;;5.88;3.35;;;;;;;13.79;72.80;101368.94;5001615;28;21282;-75
2022/10/10 10:10:56;;;;;;;6.90;3.40;;;;;;;13.83;73.06;101363.63;5003548;28;20116;-76
2022/10/10 10:13:26;;;;;;;6.05;3.03;;;;;;;13.86;71.97;101369.63;4986693;28;20121;-75
2022/10/10 10:15:59;;;;;;;5.78;3.20;;;;;;;13.87;71.92;101371.34;5002644;28;20125;-75
2022/10/10 10:18:27;;;;;;;6.60;2.83;;;;;;;13.90;71.76;101375.59;5004734;28;20037;-76
2022/10/10 10:21:02;;;;;;;6.82;3.28;;;;;;;13.91;71.68;101372.09;5005051;28;20059;-76
2022/10/10 10:23:30;;;;;;;7.20;2.90;;;;;;;13.92;71.70;101371.19;5004258;28;20040;-76
2022/10/10 10:26:00;;;;;;;7.07;2.92;;;;;;;13.93;71.50;101368.50;5004387;28;21404;-76
2022/10/10 10:28:26;;;;;;;7.13;3.00;;;;;;;13.94;72.07;101369.38;5004072;28;20095;-76
2022/10/10 10:30:54;;;;;;;6.13;2.80;;;;;;;13.95;71.39;101366.69;5007323;28;20046;-76
2022/10/10 10:33:41;;;;;;;6.82;2.90;;;;;;;13.98;71.40;101370.13;4988399;28;20049;-76
2022/10/10 10:36:37;;;;;;;8.93;3.08;;;;;;;14.00;71.51;101377.03;5005569;28;20111;-76
2022/10/10 10:39:16;;;;;;;6.13;2.80;;;;;;;14.03;72.09;101379.53;5008955;28;20132;-75
2022/10/10 10:41:59;;;;;;;6.20;2.70;;;;;;;14.04;70.99;101373.41;5009125;28;20124;-76
2022/10/10 10:44:40;;;;;;;8.02;2.70;;;;;;;14.09;71.63;101376.75;5006232;28;20084;-76
2022/10/10 10:47:19;;;;;;;7.70;2.53;;;;;;;14.16;71.41;101381.78;5002530;28;20746;-81
2022/10/10 10:50:22;;;;;;;5.35;2.60;;;;;;;14.24;71.25;101383.25;5004753;28;20528;-75
2022/10/10 10:53:05;;;;;;;6.97;3.17;;;;;;;14.34;70.29;101385.56;5004788;28;20036;-76
2022/10/10 10:55:56;;;;;;;4.55;2.80;;;;;;;14.41;69.99;101385.28;5002037;28;20032;-75
2022/10/10 10:58:49;;;;;;;8.63;3.23;;;;;;;14.45;70.25;101393.91;5001352;28;20045;-75
2022/10/10 11:01:33;;;;;;;5.55;2.50;;;;;;;14.53;69.99;101409.34;5001897;28;20033;-76
2022/10/10 11:04:10;;;;;;;7.72;2.90;;;;;;;14.57;69.18;101406.59;5000983;28;20084;-76
2022/10/10 11:06:35;;;;;;;8.90;3.08;;;;;;;14.59;68.39;101401.31;5002011;28;20030;-75
2022/10/10 11:09:32;;;;;;;7.10;2.90;;;;;;;14.63;69.29;101407.28;5005141;28;20038;-76
2022/10/10 11:12:08;;;;;;;6.90;2.67;;;;;;;14.65;68.59;101406.34;5002799;28;20109;-75
2022/10/10 11:14:50;;;;;;;6.70;3.17;;;;;;;14.68;69.76;101419.38;5001860;28;20064;-75
2022/10/10 11:17:18;;;;;;;5.82;2.80;;;;;;;14.69;68.20;101407.97;5006892;28;20029;-75
2022/10/10 11:19:56;;;;;;;8.30;3.50;;;;;;;14.72;68.24;101407.00;5002891;28;20092;-76
2022/10/10 11:22:27;;;;;;;5.90;2.72;;;;;;;14.75;68.13;101417.41;5004170;28;20485;-75
2022/10/10 11:25:27;;;;;;;5.77;2.73;;;;;;;14.76;68.39;101418.22;5007121;28;20021;-76
2022/10/10 11:28:25;;;;;;;10.77;3.00;;;;;;;14.78;69.18;101414.66;4967108;28;20045;-75
2022/10/10 11:30:57;;;;;;;8.35;3.45;;;;;;;14.80;68.26;101417.22;4978458;28;20137;-75
2022/10/10 11:33:32;;;;;;;6.55;3.00;;;;;;;14.85;68.81;101420.56;5002856;28;20384;-75
2022/10/10 11:36:18;;;;;;;7.25;3.20;;;;;;;14.93;68.64;101430.78;5006298;28;20025;-75
2022/10/10 11:39:04;;;;;;;8.00;3.38;;;;;;;14.98;68.28;101429.69;5002892;28;20030;-75
2022/10/10 11:41:45;;;;;;;10.73;3.60;;;;;;;15.03;68.46;101425.13;5004431;28;20046;-75
2022/10/10 11:44:10;;;;;;;;;;;;;;;15.12;69.16;101418.72;5002014;28;20498;-75
2022/10/10 11:46:49;;;;;;;7.32;3.22;;;;;;;15.21;69.01;101414.06;5000729;28;20036;-76